sensor_id;sensor_type;location;lat;lon;timestamp;P1;durP1;ratioP1;P2;durP2;ratioP2
52067;SDS011;60237;52.338;21.228;2023-06-26T00:00:25;1403.53;;;390.77;;
52067;SDS011;60237;52.338;21.228;2023-06-26T00:02:52;1489.18;;;414.17;;
52067;SDS011;60237;52.338;21.228;2023-06-26T00:05:19;1431.78;;;402.45;;
52067;SDS011;60237;52.338;21.228;2023-06-26T00:07:45;1446.32;;;405.20;;
52067;SDS011;60237;52.338;21.228;2023-06-26T00:10:12;1412.78;;;406.38;;
52067;SDS011;60237;52.338;21.228;2023-06-26T00:12:38;1404.15;;;406.00;;
52067;SDS011;60237;52.338;21.228;2023-06-26T00:15:05;1424.47;;;409.80;;
52067;SDS011;60237;52.338;21.228;2023-06-26T00:17:32;1391.57;;;409.05;;
52067;SDS011;60237;52.338;21.228;2023-06-26T00:20:03;1521.22;;;443.00;;
52067;SDS011;60237;52.338;21.228;2023-06-26T00:22:31;1441.93;;;416.77;;
52067;SDS011;60237;52.338;21.228;2023-06-26T00:24:58;1417.22;;;415.85;;
52067;SDS011;60237;52.338;21.228;2023-06-26T00:27:24;1394.63;;;405.90;;
52067;SDS011;60237;52.338;21.228;2023-06-26T00:29:52;1513.55;;;422.05;;
52067;SDS011;60237;52.338;21.228;2023-06-26T00:32:19;1431.03;;;383.45;;
52067;SDS011;60237;52.338;21.228;2023-06-26T00:34:45;1404.32;;;374.75;;
52067;SDS011;60237;52.338;21.228;2023-06-26T00:37:15;1575.97;;;411.30;;
52067;SDS011;60237;52.338;21.228;2023-06-26T00:39:41;1466.78;;;391.27;;
52067;SDS011;60237;52.338;21.228;2023-06-26T00:42:08;1620.20;;;426.73;;
52067;SDS011;60237;52.338;21.228;2023-06-26T00:44:35;1525.35;;;409.00;;
52067;SDS011;60237;52.338;21.228;2023-06-26T00:47:01;1524.25;;;413.20;;
52067;SDS011;60237;52.338;21.228;2023-06-26T00:49:28;1386.32;;;388.60;;
52067;SDS011;60237;52.338;21.228;2023-06-26T00:51:55;1446.15;;;401.98;;
52067;SDS011;60237;52.338;21.228;2023-06-26T00:54:22;1465.40;;;402.30;;
52067;SDS011;60237;52.338;21.228;2023-06-26T00:56:49;1414.18;;;394.00;;
52067;SDS011;60237;52.338;21.228;2023-06-26T00:59:15;1630.18;;;438.40;;
52067;SDS011;60237;52.338;21.228;2023-06-26T01:01:42;1371.22;;;387.75;;
52067;SDS011;60237;52.338;21.228;2023-06-26T01:04:09;1420.35;;;397.52;;
52067;SDS011;60237;52.338;21.228;2023-06-26T01:06:47;1534.95;;;422.17;;
52067;SDS011;60237;52.338;21.228;2023-06-26T01:09:18;1618.97;;;430.73;;
52067;SDS011;60237;52.338;21.228;2023-06-26T01:11:45;1342.47;;;372.55;;
52067;SDS011;60237;52.338;21.228;2023-06-26T01:14:13;1591.90;;;415.83;;
52067;SDS011;60237;52.338;21.228;2023-06-26T01:16:40;1440.00;;;385.25;;
52067;SDS011;60237;52.338;21.228;2023-06-26T01:19:09;1393.57;;;363.38;;
52067;SDS011;60237;52.338;21.228;2023-06-26T01:21:37;1375.07;;;357.80;;
52067;SDS011;60237;52.338;21.228;2023-06-26T01:24:11;1507.22;;;380.27;;
52067;SDS011;60237;52.338;21.228;2023-06-26T01:26:41;1416.82;;;370.23;;
52067;SDS011;60237;52.338;21.228;2023-06-26T01:29:07;1485.85;;;382.63;;
52067;SDS011;60237;52.338;21.228;2023-06-26T01:31:37;1394.95;;;347.58;;
52067;SDS011;60237;52.338;21.228;2023-06-26T01:34:04;1611.30;;;383.65;;
52067;SDS011;60237;52.338;21.228;2023-06-26T01:36:31;1334.53;;;333.08;;
52067;SDS011;60237;52.338;21.228;2023-06-26T01:38:58;1391.93;;;354.77;;
52067;SDS011;60237;52.338;21.228;2023-06-26T01:41:24;1305.88;;;336.67;;
52067;SDS011;60237;52.338;21.228;2023-06-26T01:47:20;1446.65;;;364.20;;
52067;SDS011;60237;52.338;21.228;2023-06-26T01:51:52;1301.10;;;350.05;;
52067;SDS011;60237;52.338;21.228;2023-06-26T01:54:20;1355.38;;;366.02;;
52067;SDS011;60237;52.338;21.228;2023-06-26T01:56:48;1374.28;;;360.13;;
52067;SDS011;60237;52.338;21.228;2023-06-26T01:59:15;1404.70;;;356.48;;
52067;SDS011;60237;52.338;21.228;2023-06-26T02:01:44;155.02;;;135.30;;
52067;SDS011;60237;52.338;21.228;2023-06-26T02:04:11;124.72;;;115.68;;
52067;SDS011;60237;52.338;21.228;2023-06-26T02:06:37;127.72;;;117.70;;
52067;SDS011;60237;52.338;21.228;2023-06-26T02:09:04;133.30;;;122.70;;
52067;SDS011;60237;52.338;21.228;2023-06-26T02:11:30;130.15;;;118.20;;
52067;SDS011;60237;52.338;21.228;2023-06-26T02:13:57;131.85;;;117.35;;
52067;SDS011;60237;52.338;21.228;2023-06-26T02:16:24;119.45;;;110.75;;
52067;SDS011;60237;52.338;21.228;2023-06-26T02:18:51;116.78;;;107.05;;
52067;SDS011;60237;52.338;21.228;2023-06-26T02:21:17;113.60;;;104.43;;
52067;SDS011;60237;52.338;21.228;2023-06-26T02:23:44;115.63;;;106.32;;
52067;SDS011;60237;52.338;21.228;2023-06-26T02:26:11;117.13;;;104.95;;
52067;SDS011;60237;52.338;21.228;2023-06-26T02:28:41;117.53;;;108.15;;
52067;SDS011;60237;52.338;21.228;2023-06-26T02:31:11;111.88;;;102.68;;
52067;SDS011;60237;52.338;21.228;2023-06-26T02:33:37;115.65;;;105.63;;
52067;SDS011;60237;52.338;21.228;2023-06-26T02:36:05;107.43;;;99.50;;
52067;SDS011;60237;52.338;21.228;2023-06-26T02:38:31;118.05;;;108.43;;
52067;SDS011;60237;52.338;21.228;2023-06-26T02:41:01;119.78;;;107.82;;
52067;SDS011;60237;52.338;21.228;2023-06-26T02:43:28;103.95;;;96.72;;
52067;SDS011;60237;52.338;21.228;2023-06-26T02:45:55;110.38;;;101.43;;
52067;SDS011;60237;52.338;21.228;2023-06-26T02:48:22;114.32;;;104.38;;
52067;SDS011;60237;52.338;21.228;2023-06-26T02:50:49;118.47;;;108.15;;
52067;SDS011;60237;52.338;21.228;2023-06-26T02:53:15;118.03;;;106.65;;
52067;SDS011;60237;52.338;21.228;2023-06-26T02:55:44;121.57;;;110.28;;
52067;SDS011;60237;52.338;21.228;2023-06-26T02:58:11;119.50;;;110.80;;
52067;SDS011;60237;52.338;21.228;2023-06-26T03:00:38;113.93;;;105.00;;
52067;SDS011;60237;52.338;21.228;2023-06-26T03:03:12;121.53;;;110.30;;
52067;SDS011;60237;52.338;21.228;2023-06-26T03:05:39;116.25;;;106.13;;
52067;SDS011;60237;52.338;21.228;2023-06-26T03:08:06;135.93;;;120.43;;
52067;SDS011;60237;52.338;21.228;2023-06-26T03:10:33;113.57;;;104.50;;
52067;SDS011;60237;52.338;21.228;2023-06-26T03:13:00;121.78;;;111.82;;
52067;SDS011;60237;52.338;21.228;2023-06-26T03:15:27;126.88;;;116.57;;
52067;SDS011;60237;52.338;21.228;2023-06-26T03:17:53;140.10;;;128.38;;
52067;SDS011;60237;52.338;21.228;2023-06-26T03:20:24;141.38;;;130.32;;
52067;SDS011;60237;52.338;21.228;2023-06-26T03:22:53;137.40;;;127.07;;
52067;SDS011;60237;52.338;21.228;2023-06-26T03:25:21;152.30;;;140.75;;
52067;SDS011;60237;52.338;21.228;2023-06-26T03:27:52;162.40;;;149.63;;
52067;SDS011;60237;52.338;21.228;2023-06-26T03:30:18;165.00;;;152.93;;
52067;SDS011;60237;52.338;21.228;2023-06-26T03:32:48;178.50;;;155.75;;
52067;SDS011;60237;52.338;21.228;2023-06-26T03:35:16;165.85;;;151.10;;
52067;SDS011;60237;52.338;21.228;2023-06-26T03:37:42;166.73;;;152.05;;
52067;SDS011;60237;52.338;21.228;2023-06-26T03:40:10;166.55;;;155.00;;
52067;SDS011;60237;52.338;21.228;2023-06-26T03:42:36;170.55;;;157.13;;
52067;SDS011;60237;52.338;21.228;2023-06-26T03:45:03;174.57;;;158.48;;
52067;SDS011;60237;52.338;21.228;2023-06-26T03:47:31;173.32;;;159.25;;
52067;SDS011;60237;52.338;21.228;2023-06-26T03:49:58;175.93;;;158.05;;
52067;SDS011;60237;52.338;21.228;2023-06-26T03:52:25;170.80;;;157.15;;
52067;SDS011;60237;52.338;21.228;2023-06-26T03:54:51;162.65;;;149.57;;
52067;SDS011;60237;52.338;21.228;2023-06-26T03:57:18;168.65;;;156.15;;
52067;SDS011;60237;52.338;21.228;2023-06-26T03:59:46;168.07;;;154.68;;
52067;SDS011;60237;52.338;21.228;2023-06-26T04:02:13;193.18;;;175.20;;
52067;SDS011;60237;52.338;21.228;2023-06-26T04:04:42;182.07;;;168.70;;
52067;SDS011;60237;52.338;21.228;2023-06-26T04:07:08;169.70;;;157.02;;
52067;SDS011;60237;52.338;21.228;2023-06-26T04:09:36;173.68;;;161.38;;
52067;SDS011;60237;52.338;21.228;2023-06-26T04:12:02;188.75;;;173.70;;
52067;SDS011;60237;52.338;21.228;2023-06-26T04:14:29;182.93;;;168.10;;
52067;SDS011;60237;52.338;21.228;2023-06-26T04:16:56;191.93;;;175.52;;
52067;SDS011;60237;52.338;21.228;2023-06-26T04:19:24;181.00;;;167.70;;
52067;SDS011;60237;52.338;21.228;2023-06-26T04:21:52;190.18;;;175.27;;
52067;SDS011;60237;52.338;21.228;2023-06-26T04:24:18;202.13;;;186.73;;
52067;SDS011;60237;52.338;21.228;2023-06-26T04:26:45;226.70;;;208.77;;
52067;SDS011;60237;52.338;21.228;2023-06-26T04:29:12;416.50;;;380.95;;
52067;SDS011;60237;52.338;21.228;2023-06-26T04:31:39;443.40;;;410.75;;
52067;SDS011;60237;52.338;21.228;2023-06-26T04:34:05;469.77;;;433.80;;
52067;SDS011;60237;52.338;21.228;2023-06-26T04:36:32;485.90;;;447.42;;
52067;SDS011;60237;52.338;21.228;2023-06-26T04:38:59;468.75;;;418.15;;
52067;SDS011;60237;52.338;21.228;2023-06-26T04:41:26;443.20;;;408.55;;
52067;SDS011;60237;52.338;21.228;2023-06-26T04:43:53;435.60;;;401.30;;
52067;SDS011;60237;52.338;21.228;2023-06-26T04:46:19;455.35;;;420.45;;
52067;SDS011;60237;52.338;21.228;2023-06-26T04:48:46;452.17;;;416.38;;
52067;SDS011;60237;52.338;21.228;2023-06-26T04:51:13;444.02;;;409.73;;
52067;SDS011;60237;52.338;21.228;2023-06-26T04:53:39;460.52;;;423.23;;
52067;SDS011;60237;52.338;21.228;2023-06-26T04:56:06;475.30;;;434.15;;
52067;SDS011;60237;52.338;21.228;2023-06-26T04:58:33;458.88;;;422.52;;
52067;SDS011;60237;52.338;21.228;2023-06-26T05:01:00;466.40;;;429.40;;
52067;SDS011;60237;52.338;21.228;2023-06-26T05:03:28;455.65;;;413.63;;
52067;SDS011;60237;52.338;21.228;2023-06-26T05:05:55;470.38;;;433.40;;
52067;SDS011;60237;52.338;21.228;2023-06-26T05:08:22;460.67;;;424.15;;
52067;SDS011;60237;52.338;21.228;2023-06-26T05:10:49;458.05;;;422.98;;
52067;SDS011;60237;52.338;21.228;2023-06-26T05:13:16;461.60;;;426.65;;
52067;SDS011;60237;52.338;21.228;2023-06-26T05:15:45;463.15;;;427.10;;
52067;SDS011;60237;52.338;21.228;2023-06-26T05:18:12;468.02;;;431.30;;
52067;SDS011;60237;52.338;21.228;2023-06-26T05:20:39;481.23;;;441.52;;
52067;SDS011;60237;52.338;21.228;2023-06-26T05:23:06;484.92;;;441.55;;
52067;SDS011;60237;52.338;21.228;2023-06-26T05:25:33;477.45;;;440.73;;
52067;SDS011;60237;52.338;21.228;2023-06-26T05:28:03;474.42;;;436.00;;
52067;SDS011;60237;52.338;21.228;2023-06-26T05:30:31;522.38;;;478.45;;
52067;SDS011;60237;52.338;21.228;2023-06-26T05:33:01;514.83;;;471.95;;
52067;SDS011;60237;52.338;21.228;2023-06-26T05:35:28;507.13;;;465.88;;
52067;SDS011;60237;52.338;21.228;2023-06-26T05:37:56;487.27;;;446.85;;
52067;SDS011;60237;52.338;21.228;2023-06-26T05:40:23;515.75;;;473.10;;
52067;SDS011;60237;52.338;21.228;2023-06-26T05:42:50;517.05;;;474.08;;
52067;SDS011;60237;52.338;21.228;2023-06-26T05:45:17;529.50;;;486.85;;
52067;SDS011;60237;52.338;21.228;2023-06-26T05:47:43;513.40;;;470.52;;
52067;SDS011;60237;52.338;21.228;2023-06-26T05:50:10;508.70;;;463.88;;
52067;SDS011;60237;52.338;21.228;2023-06-26T05:52:37;526.35;;;466.67;;
52067;SDS011;60237;52.338;21.228;2023-06-26T05:55:05;510.27;;;464.92;;
52067;SDS011;60237;52.338;21.228;2023-06-26T05:57:32;521.25;;;473.75;;
52067;SDS011;60237;52.338;21.228;2023-06-26T05:59:59;512.30;;;469.15;;
52067;SDS011;60237;52.338;21.228;2023-06-26T06:02:26;527.90;;;475.10;;
52067;SDS011;60237;52.338;21.228;2023-06-26T06:04:54;502.13;;;459.02;;
52067;SDS011;60237;52.338;21.228;2023-06-26T06:07:21;552.75;;;506.58;;
52067;SDS011;60237;52.338;21.228;2023-06-26T06:09:48;534.42;;;487.73;;
52067;SDS011;60237;52.338;21.228;2023-06-26T06:12:15;528.25;;;482.02;;
52067;SDS011;60237;52.338;21.228;2023-06-26T06:14:41;567.30;;;517.90;;
52067;SDS011;60237;52.338;21.228;2023-06-26T06:17:08;551.20;;;501.75;;
52067;SDS011;60237;52.338;21.228;2023-06-26T06:19:34;527.42;;;482.30;;
52067;SDS011;60237;52.338;21.228;2023-06-26T06:22:01;528.60;;;483.48;;
52067;SDS011;60237;52.338;21.228;2023-06-26T06:24:28;528.92;;;485.25;;
52067;SDS011;60237;52.338;21.228;2023-06-26T06:26:54;549.47;;;502.77;;
52067;SDS011;60237;52.338;21.228;2023-06-26T06:29:21;568.45;;;520.30;;
52067;SDS011;60237;52.338;21.228;2023-06-26T06:31:47;841.58;;;768.95;;
52067;SDS011;60237;52.338;21.228;2023-06-26T06:34:14;1224.55;;;999.90;;
52067;SDS011;60237;52.338;21.228;2023-06-26T06:36:41;1238.40;;;999.90;;
52067;SDS011;60237;52.338;21.228;2023-06-26T06:39:07;1153.45;;;999.90;;
52067;SDS011;60237;52.338;21.228;2023-06-26T06:41:34;1052.00;;;949.92;;
52067;SDS011;60237;52.338;21.228;2023-06-26T06:44:05;1016.72;;;923.25;;
52067;SDS011;60237;52.338;21.228;2023-06-26T06:46:31;977.83;;;890.35;;
52067;SDS011;60237;52.338;21.228;2023-06-26T06:48:58;969.45;;;882.45;;
52067;SDS011;60237;52.338;21.228;2023-06-26T06:51:24;957.38;;;872.63;;
52067;SDS011;60237;52.338;21.228;2023-06-26T06:53:51;921.47;;;839.05;;
52067;SDS011;60237;52.338;21.228;2023-06-26T06:56:18;948.78;;;862.47;;
52067;SDS011;60237;52.338;21.228;2023-06-26T06:58:45;921.90;;;839.80;;
52067;SDS011;60237;52.338;21.228;2023-06-26T07:01:13;945.47;;;861.03;;
52067;SDS011;60237;52.338;21.228;2023-06-26T07:03:40;938.05;;;854.75;;
52067;SDS011;60237;52.338;21.228;2023-06-26T07:06:07;948.17;;;863.38;;
52067;SDS011;60237;52.338;21.228;2023-06-26T07:08:34;952.63;;;867.60;;
52067;SDS011;60237;52.338;21.228;2023-06-26T07:11:01;955.67;;;868.60;;
52067;SDS011;60237;52.338;21.228;2023-06-26T07:13:29;935.38;;;852.97;;
52067;SDS011;60237;52.338;21.228;2023-06-26T07:15:56;923.30;;;841.70;;
52067;SDS011;60237;52.338;21.228;2023-06-26T07:18:22;910.85;;;830.17;;
52067;SDS011;60237;52.338;21.228;2023-06-26T07:20:49;886.42;;;808.28;;
52067;SDS011;60237;52.338;21.228;2023-06-26T07:23:16;889.55;;;810.13;;
52067;SDS011;60237;52.338;21.228;2023-06-26T07:25:42;905.33;;;825.28;;
52067;SDS011;60237;52.338;21.228;2023-06-26T07:28:10;889.97;;;810.25;;
52067;SDS011;60237;52.338;21.228;2023-06-26T07:30:37;891.05;;;812.28;;
52067;SDS011;60237;52.338;21.228;2023-06-26T07:33:04;894.42;;;814.55;;
52067;SDS011;60237;52.338;21.228;2023-06-26T07:35:31;801.15;;;730.13;;
52067;SDS011;60237;52.338;21.228;2023-06-26T07:37:57;747.95;;;681.33;;
52067;SDS011;60237;52.338;21.228;2023-06-26T07:40:25;724.10;;;662.45;;
52067;SDS011;60237;52.338;21.228;2023-06-26T07:42:51;704.13;;;643.65;;
52067;SDS011;60237;52.338;21.228;2023-06-26T07:45:20;698.17;;;638.10;;
52067;SDS011;60237;52.338;21.228;2023-06-26T07:47:46;670.38;;;613.38;;
52067;SDS011;60237;52.338;21.228;2023-06-26T07:50:13;638.95;;;580.33;;
52067;SDS011;60237;52.338;21.228;2023-06-26T07:52:45;587.03;;;537.10;;
52067;SDS011;60237;52.338;21.228;2023-06-26T07:55:12;504.77;;;462.67;;
52067;SDS011;60237;52.338;21.228;2023-06-26T07:57:39;452.40;;;415.90;;
52067;SDS011;60237;52.338;21.228;2023-06-26T08:00:06;417.48;;;381.35;;
52067;SDS011;60237;52.338;21.228;2023-06-26T08:02:42;382.85;;;350.30;;
52067;SDS011;60237;52.338;21.228;2023-06-26T08:05:09;427.08;;;345.30;;
52067;SDS011;60237;52.338;21.228;2023-06-26T08:07:36;346.75;;;318.55;;
52067;SDS011;60237;52.338;21.228;2023-06-26T08:10:03;321.35;;;295.83;;
52067;SDS011;60237;52.338;21.228;2023-06-26T08:12:30;324.13;;;297.38;;
52067;SDS011;60237;52.338;21.228;2023-06-26T08:14:56;296.92;;;274.55;;
52067;SDS011;60237;52.338;21.228;2023-06-26T08:17:23;286.75;;;264.42;;
52067;SDS011;60237;52.338;21.228;2023-06-26T08:19:49;281.45;;;258.73;;
52067;SDS011;60237;52.338;21.228;2023-06-26T08:22:16;273.42;;;252.00;;
52067;SDS011;60237;52.338;21.228;2023-06-26T08:24:43;246.10;;;226.85;;
52067;SDS011;60237;52.338;21.228;2023-06-26T08:27:09;237.77;;;218.88;;
52067;SDS011;60237;52.338;21.228;2023-06-26T08:29:36;232.55;;;213.82;;
52067;SDS011;60237;52.338;21.228;2023-06-26T08:32:03;248.23;;;225.50;;
52067;SDS011;60237;52.338;21.228;2023-06-26T08:34:29;232.93;;;213.95;;
52067;SDS011;60237;52.338;21.228;2023-06-26T08:36:56;231.32;;;212.38;;
52067;SDS011;60237;52.338;21.228;2023-06-26T08:39:23;238.25;;;220.25;;
52067;SDS011;60237;52.338;21.228;2023-06-26T08:41:50;217.02;;;199.48;;
52067;SDS011;60237;52.338;21.228;2023-06-26T08:44:17;215.60;;;197.02;;
52067;SDS011;60237;52.338;21.228;2023-06-26T08:46:43;226.32;;;208.68;;
52067;SDS011;60237;52.338;21.228;2023-06-26T08:51:45;205.07;;;188.18;;
52067;SDS011;60237;52.338;21.228;2023-06-26T08:54:15;211.77;;;191.60;;
52067;SDS011;60237;52.338;21.228;2023-06-26T08:56:44;216.98;;;198.93;;
52067;SDS011;60237;52.338;21.228;2023-06-26T08:59:11;231.65;;;209.02;;
52067;SDS011;60237;52.338;21.228;2023-06-26T09:01:39;232.18;;;214.00;;
52067;SDS011;60237;52.338;21.228;2023-06-26T09:04:06;223.52;;;206.73;;
52067;SDS011;60237;52.338;21.228;2023-06-26T09:06:33;234.52;;;216.73;;
52067;SDS011;60237;52.338;21.228;2023-06-26T09:09:00;246.88;;;228.48;;
52067;SDS011;60237;52.338;21.228;2023-06-26T09:11:27;250.07;;;230.00;;
52067;SDS011;60237;52.338;21.228;2023-06-26T09:13:54;256.60;;;237.77;;
52067;SDS011;60237;52.338;21.228;2023-06-26T09:16:25;257.27;;;237.10;;
52067;SDS011;60237;52.338;21.228;2023-06-26T09:18:53;252.65;;;234.60;;
52067;SDS011;60237;52.338;21.228;2023-06-26T09:21:19;264.70;;;244.68;;
52067;SDS011;60237;52.338;21.228;2023-06-26T09:23:47;259.67;;;239.70;;
52067;SDS011;60237;52.338;21.228;2023-06-26T09:26:15;269.30;;;245.38;;
52067;SDS011;60237;52.338;21.228;2023-06-26T09:28:42;255.85;;;236.15;;
52067;SDS011;60237;52.338;21.228;2023-06-26T09:31:10;276.85;;;254.60;;
52067;SDS011;60237;52.338;21.228;2023-06-26T09:33:37;248.73;;;227.77;;
52067;SDS011;60237;52.338;21.228;2023-06-26T09:36:08;264.65;;;244.48;;
52067;SDS011;60237;52.338;21.228;2023-06-26T09:38:37;269.08;;;244.82;;
52067;SDS011;60237;52.338;21.228;2023-06-26T09:41:04;275.45;;;250.95;;
52067;SDS011;60237;52.338;21.228;2023-06-26T09:43:31;275.08;;;251.65;;
52067;SDS011;60237;52.338;21.228;2023-06-26T09:45:59;274.90;;;254.73;;
52067;SDS011;60237;52.338;21.228;2023-06-26T09:48:27;272.42;;;250.77;;
52067;SDS011;60237;52.338;21.228;2023-06-26T09:50:54;275.67;;;254.45;;
52067;SDS011;60237;52.338;21.228;2023-06-26T09:53:37;264.90;;;243.98;;
52067;SDS011;60237;52.338;21.228;2023-06-26T09:56:07;288.73;;;263.05;;
52067;SDS011;60237;52.338;21.228;2023-06-26T09:58:41;277.75;;;256.35;;
52067;SDS011;60237;52.338;21.228;2023-06-26T10:01:08;277.63;;;256.83;;
52067;SDS011;60237;52.338;21.228;2023-06-26T10:03:36;294.00;;;271.92;;
52067;SDS011;60237;52.338;21.228;2023-06-26T10:06:03;291.02;;;269.15;;
52067;SDS011;60237;52.338;21.228;2023-06-26T10:08:30;931.72;;;854.05;;
52067;SDS011;60237;52.338;21.228;2023-06-26T10:10:57;872.80;;;802.60;;
52067;SDS011;60237;52.338;21.228;2023-06-26T10:13:26;877.10;;;805.65;;
52067;SDS011;60237;52.338;21.228;2023-06-26T10:15:54;831.47;;;763.80;;
52067;SDS011;60237;52.338;21.228;2023-06-26T10:18:21;822.60;;;757.00;;
52067;SDS011;60237;52.338;21.228;2023-06-26T10:20:48;798.03;;;734.28;;
52067;SDS011;60237;52.338;21.228;2023-06-26T10:23:16;812.45;;;743.25;;
52067;SDS011;60237;52.338;21.228;2023-06-26T10:25:46;771.75;;;709.83;;
52067;SDS011;60237;52.338;21.228;2023-06-26T10:28:14;773.30;;;711.45;;
52067;SDS011;60237;52.338;21.228;2023-06-26T10:30:42;772.65;;;710.25;;
52067;SDS011;60237;52.338;21.228;2023-06-26T10:33:11;782.20;;;718.60;;
52067;SDS011;60237;52.338;21.228;2023-06-26T10:35:44;785.97;;;722.60;;
52067;SDS011;60237;52.338;21.228;2023-06-26T10:38:11;781.15;;;717.33;;
52067;SDS011;60237;52.338;21.228;2023-06-26T10:40:42;798.47;;;729.60;;
52067;SDS011;60237;52.338;21.228;2023-06-26T10:43:09;766.40;;;704.50;;
52067;SDS011;60237;52.338;21.228;2023-06-26T10:45:45;758.65;;;697.72;;
52067;SDS011;60237;52.338;21.228;2023-06-26T10:48:15;757.67;;;696.30;;
52067;SDS011;60237;52.338;21.228;2023-06-26T10:50:42;766.10;;;704.78;;
52067;SDS011;60237;52.338;21.228;2023-06-26T10:53:10;757.80;;;693.40;;
52067;SDS011;60237;52.338;21.228;2023-06-26T10:55:40;752.90;;;692.05;;
52067;SDS011;60237;52.338;21.228;2023-06-26T11:00:52;759.13;;;697.83;;
52067;SDS011;60237;52.338;21.228;2023-06-26T11:03:24;773.45;;;710.30;;
52067;SDS011;60237;52.338;21.228;2023-06-26T11:06:08;771.63;;;709.67;;
52067;SDS011;60237;52.338;21.228;2023-06-26T11:08:45;783.10;;;718.35;;
52067;SDS011;60237;52.338;21.228;2023-06-26T11:11:12;783.78;;;713.70;;
52067;SDS011;60237;52.338;21.228;2023-06-26T11:13:39;766.25;;;704.05;;
52067;SDS011;60237;52.338;21.228;2023-06-26T11:16:06;761.03;;;699.70;;
52067;SDS011;60237;52.338;21.228;2023-06-26T11:18:33;733.25;;;673.85;;
52067;SDS011;60237;52.338;21.228;2023-06-26T11:21:06;735.45;;;676.75;;
52067;SDS011;60237;52.338;21.228;2023-06-26T11:23:33;768.55;;;704.67;;
52067;SDS011;60237;52.338;21.228;2023-06-26T11:26:16;760.08;;;698.22;;
52067;SDS011;60237;52.338;21.228;2023-06-26T11:28:50;763.00;;;700.88;;
52067;SDS011;60237;52.338;21.228;2023-06-26T11:31:23;774.50;;;711.63;;
52067;SDS011;60237;52.338;21.228;2023-06-26T11:33:50;765.40;;;702.17;;
52067;SDS011;60237;52.338;21.228;2023-06-26T11:36:16;753.03;;;691.40;;
52067;SDS011;60237;52.338;21.228;2023-06-26T11:38:43;754.42;;;691.97;;
52067;SDS011;60237;52.338;21.228;2023-06-26T11:41:10;762.72;;;696.47;;
52067;SDS011;60237;52.338;21.228;2023-06-26T11:43:36;746.60;;;684.35;;
52067;SDS011;60237;52.338;21.228;2023-06-26T11:46:03;748.08;;;687.70;;
52067;SDS011;60237;52.338;21.228;2023-06-26T11:48:31;748.88;;;688.22;;
52067;SDS011;60237;52.338;21.228;2023-06-26T11:50:58;757.38;;;696.65;;
52067;SDS011;60237;52.338;21.228;2023-06-26T11:53:24;759.90;;;698.25;;
52067;SDS011;60237;52.338;21.228;2023-06-26T11:55:51;763.28;;;700.53;;
52067;SDS011;60237;52.338;21.228;2023-06-26T11:58:17;766.30;;;702.53;;
52067;SDS011;60237;52.338;21.228;2023-06-26T12:00:44;775.65;;;712.08;;
52067;SDS011;60237;52.338;21.228;2023-06-26T12:03:11;750.80;;;689.75;;
52067;SDS011;60237;52.338;21.228;2023-06-26T12:05:38;758.25;;;695.78;;
52067;SDS011;60237;52.338;21.228;2023-06-26T12:08:06;780.75;;;714.47;;
52067;SDS011;60237;52.338;21.228;2023-06-26T12:10:33;761.65;;;699.47;;
52067;SDS011;60237;52.338;21.228;2023-06-26T12:13:00;747.65;;;687.80;;
52067;SDS011;60237;52.338;21.228;2023-06-26T12:15:27;773.55;;;711.03;;
52067;SDS011;60237;52.338;21.228;2023-06-26T12:17:54;769.42;;;706.58;;
52067;SDS011;60237;52.338;21.228;2023-06-26T12:20:22;774.42;;;710.22;;
52067;SDS011;60237;52.338;21.228;2023-06-26T12:22:49;767.08;;;704.45;;
52067;SDS011;60237;52.338;21.228;2023-06-26T12:25:16;746.00;;;685.83;;
52067;SDS011;60237;52.338;21.228;2023-06-26T12:27:47;759.55;;;698.75;;
52067;SDS011;60237;52.338;21.228;2023-06-26T12:30:14;754.38;;;691.75;;
52067;SDS011;60237;52.338;21.228;2023-06-26T12:32:45;768.13;;;704.95;;
52067;SDS011;60237;52.338;21.228;2023-06-26T12:35:12;766.10;;;700.80;;
52067;SDS011;60237;52.338;21.228;2023-06-26T12:37:39;765.53;;;703.28;;
52067;SDS011;60237;52.338;21.228;2023-06-26T12:40:16;760.38;;;697.75;;
52067;SDS011;60237;52.338;21.228;2023-06-26T12:42:44;768.85;;;705.88;;
52067;SDS011;60237;52.338;21.228;2023-06-26T12:45:12;758.60;;;696.35;;
52067;SDS011;60237;52.338;21.228;2023-06-26T12:48:06;785.22;;;718.78;;
52067;SDS011;60237;52.338;21.228;2023-06-26T12:50:36;767.40;;;703.78;;
52067;SDS011;60237;52.338;21.228;2023-06-26T12:53:03;767.72;;;704.65;;
52067;SDS011;60237;52.338;21.228;2023-06-26T12:55:30;764.83;;;702.47;;
52067;SDS011;60237;52.338;21.228;2023-06-26T12:57:57;781.40;;;717.20;;
52067;SDS011;60237;52.338;21.228;2023-06-26T13:00:23;767.63;;;703.45;;
52067;SDS011;60237;52.338;21.228;2023-06-26T13:02:50;760.95;;;698.25;;
52067;SDS011;60237;52.338;21.228;2023-06-26T13:05:16;775.95;;;708.42;;
52067;SDS011;60237;52.338;21.228;2023-06-26T13:07:43;739.08;;;679.47;;
52067;SDS011;60237;52.338;21.228;2023-06-26T13:10:10;746.70;;;686.65;;
52067;SDS011;60237;52.338;21.228;2023-06-26T13:12:36;737.00;;;676.13;;
52067;SDS011;60237;52.338;21.228;2023-06-26T13:15:03;744.72;;;685.65;;
52067;SDS011;60237;52.338;21.228;2023-06-26T13:17:31;737.33;;;677.92;;
52067;SDS011;60237;52.338;21.228;2023-06-26T13:19:58;756.30;;;696.03;;
52067;SDS011;60237;52.338;21.228;2023-06-26T13:22:24;756.15;;;689.55;;
52067;SDS011;60237;52.338;21.228;2023-06-26T13:24:51;738.72;;;678.53;;
52067;SDS011;60237;52.338;21.228;2023-06-26T13:27:17;748.25;;;685.15;;
52067;SDS011;60237;52.338;21.228;2023-06-26T13:29:44;749.65;;;688.95;;
52067;SDS011;60237;52.338;21.228;2023-06-26T13:32:11;769.95;;;703.35;;
52067;SDS011;60237;52.338;21.228;2023-06-26T13:34:37;751.88;;;689.17;;
52067;SDS011;60237;52.338;21.228;2023-06-26T13:37:04;756.63;;;695.63;;
52067;SDS011;60237;52.338;21.228;2023-06-26T13:39:30;731.45;;;672.92;;
52067;SDS011;60237;52.338;21.228;2023-06-26T13:41:57;737.40;;;678.22;;
52067;SDS011;60237;52.338;21.228;2023-06-26T13:44:24;748.25;;;686.17;;
52067;SDS011;60237;52.338;21.228;2023-06-26T13:47:04;737.42;;;678.00;;
52067;SDS011;60237;52.338;21.228;2023-06-26T13:49:31;739.10;;;678.17;;
52067;SDS011;60237;52.338;21.228;2023-06-26T13:51:58;751.15;;;690.47;;
52067;SDS011;60237;52.338;21.228;2023-06-26T13:54:25;744.17;;;683.92;;
52067;SDS011;60237;52.338;21.228;2023-06-26T13:56:52;751.08;;;689.20;;